createdAt,value
2017-08-24T00:00:03.407Z,1011.39
2017-08-24T00:01:15.948Z,1011.37
2017-08-24T00:02:28.595Z,1011.4
2017-08-24T00:03:40.905Z,1011.44
2017-08-24T00:04:52.592Z,1011.39
2017-08-24T00:06:05.171Z,1011.42
2017-08-24T00:07:17.102Z,1011.4
2017-08-24T00:08:29.708Z,1011.42
2017-08-24T00:09:42.524Z,1011.43
2017-08-24T00:10:54.789Z,1011.41
2017-08-24T00:12:07.012Z,1011.42
2017-08-24T00:13:19.585Z,1011.41
2017-08-24T00:14:32.161Z,1011.42
2017-08-24T00:15:44.720Z,1011.41
2017-08-24T00:16:57.033Z,1011.41
2017-08-24T00:18:09.287Z,1011.42
2017-08-24T00:19:21.875Z,1011.43
2017-08-24T00:20:34.184Z,1011.4
2017-08-24T00:21:46.772Z,1011.36
2017-08-24T00:22:58.801Z,1011.34
2017-08-24T00:24:11.415Z,1011.33
2017-08-24T00:25:23.690Z,1011.31
2017-08-24T00:26:36.273Z,1011.29
2017-08-24T00:27:48.860Z,1011.29
2017-08-24T00:29:01.422Z,1011.27
2017-08-24T00:30:13.669Z,1011.22
2017-08-24T00:31:25.688Z,1011.24
2017-08-24T00:32:38.246Z,1011.19
2017-08-24T00:33:50.508Z,1011.14
2017-08-24T00:35:02.767Z,1011.13
2017-08-24T00:36:14.701Z,1011.17
2017-08-24T00:37:27.004Z,1011.13
2017-08-24T00:38:39.638Z,1011.14
2017-08-24T00:39:52.234Z,1011.16
2017-08-24T00:41:04.506Z,1011.19
2017-08-24T00:42:16.777Z,1011.16
2017-08-24T00:43:29.418Z,1011.14
2017-08-24T00:44:41.991Z,1011.21
2017-08-24T00:45:54.219Z,1011.14
2017-08-24T00:47:06.189Z,1011.15
2017-08-24T00:48:18.435Z,1011.16
2017-08-24T00:49:30.423Z,1011.14
2017-08-24T00:50:43.017Z,1011.12
2017-08-24T00:51:55.032Z,1011.13
2017-08-24T00:53:07.571Z,1011.13
2017-08-24T00:54:20.239Z,1011.11
2017-08-24T00:55:32.876Z,1011.15
2017-08-24T00:56:44.815Z,1011.12
2017-08-24T00:57:56.792Z,1011.14
2017-08-24T00:59:09.405Z,1011.09
2017-08-24T01:00:21.652Z,1011.12
2017-08-24T01:01:34.241Z,1011.09
2017-08-24T01:02:46.556Z,1011.13
2017-08-24T01:03:59.058Z,1011.11
2017-08-24T01:05:11.059Z,1011.05
2017-08-24T01:06:23.568Z,1011.09
2017-08-24T01:07:35.844Z,1011.06
2017-08-24T01:08:48.484Z,1011.02
2017-08-24T01:10:01.150Z,1011.02
2017-08-24T01:11:13.108Z,1011.07
2017-08-24T01:12:25.458Z,1011.06
2017-08-24T01:13:37.114Z,1011.06
2017-08-24T01:14:49.732Z,1011.08
2017-08-24T01:16:02.393Z,1011.07
2017-08-24T01:17:14.397Z,1011.04
2017-08-24T01:18:27.041Z,1011.03
2017-08-24T01:19:39.339Z,1011
2017-08-24T01:20:51.966Z,1011.05
2017-08-24T01:22:04.241Z,1011
2017-08-24T01:23:16.842Z,1011.02
2017-08-24T01:24:28.822Z,1010.98
2017-08-24T01:25:41.426Z,1010.96
2017-08-24T01:26:53.688Z,1010.93
2017-08-24T01:28:06.282Z,1010.92
2017-08-24T01:29:18.233Z,1010.9
2017-08-24T01:30:30.828Z,1010.88
2017-08-24T01:31:43.444Z,1010.9
2017-08-24T01:32:55.998Z,1010.84
2017-08-24T01:34:08.598Z,1010.83
2017-08-24T01:35:21.226Z,1010.82
2017-08-24T01:36:33.781Z,1010.86
2017-08-24T01:37:45.125Z,1010.81
2017-08-24T01:38:57.431Z,1010.84
2017-08-24T01:40:09.982Z,1010.8
2017-08-24T01:41:22.554Z,1010.82
2017-08-24T01:42:35.109Z,1010.88
2017-08-24T01:43:47.627Z,1010.86
2017-08-24T01:44:59.896Z,1010.88
2017-08-24T01:46:12.233Z,1010.89
2017-08-24T01:47:25.076Z,1010.87
2017-08-24T01:48:37.371Z,1010.9
2017-08-24T01:49:49.996Z,1010.88
2017-08-24T01:51:02.301Z,1010.93
2017-08-24T01:52:14.834Z,1010.94
2017-08-24T01:53:27.410Z,1010.89
2017-08-24T01:54:39.674Z,1010.94
2017-08-24T01:55:52.034Z,1010.96
2017-08-24T01:57:04.629Z,1010.99
2017-08-24T01:58:17.255Z,1010.96
2017-08-24T01:59:29.796Z,1010.89
2017-08-24T02:00:42.092Z,1010.91
2017-08-24T02:01:54.341Z,1010.9
2017-08-24T02:03:06.939Z,1010.9
2017-08-24T02:04:18.904Z,1010.91
2017-08-24T02:05:31.174Z,1010.89
2017-08-24T02:06:43.837Z,1010.83
2017-08-24T02:07:56.090Z,1010.8
2017-08-24T02:09:08.067Z,1010.78
2017-08-24T02:10:20.632Z,1010.79
2017-08-24T02:11:33.255Z,1010.78
2017-08-24T02:12:45.825Z,1010.73
2017-08-24T02:13:58.086Z,1010.75
2017-08-24T02:15:10.650Z,1010.74
2017-08-24T02:16:22.946Z,1010.74
2017-08-24T02:17:35.591Z,1010.7
2017-08-24T02:18:47.865Z,1010.67
2017-08-24T02:19:59.850Z,1010.63
2017-08-24T02:21:11.780Z,1010.62
2017-08-24T02:22:24.370Z,1010.56
2017-08-24T02:23:36.934Z,1010.57
2017-08-24T02:24:49.496Z,1010.59
2017-08-24T02:26:02.043Z,1010.55
2017-08-24T02:27:14.370Z,1010.54
2017-08-24T02:28:26.935Z,1010.53
2017-08-24T02:29:39.193Z,1010.5
2017-08-24T02:30:51.756Z,1010.49
2017-08-24T02:32:04.033Z,1010.49
2017-08-24T02:33:16.351Z,1010.53
2017-08-24T02:34:28.993Z,1010.51
2017-08-24T02:35:41.291Z,1010.52
2017-08-24T02:36:53.517Z,1010.53
2017-08-24T02:38:06.058Z,1010.5
2017-08-24T02:39:17.728Z,1010.48
2017-08-24T02:40:30.354Z,1010.45
2017-08-24T02:41:42.621Z,1010.44
2017-08-24T02:42:54.862Z,1010.43
2017-08-24T02:44:07.440Z,1010.41
2017-08-24T02:45:19.965Z,1010.4
2017-08-24T02:46:31.977Z,1010.4
2017-08-24T02:47:44.582Z,1010.42
2017-08-24T02:48:56.568Z,1010.38
2017-08-24T02:50:09.225Z,1010.35
2017-08-24T02:51:21.783Z,1010.38
2017-08-24T02:52:34.652Z,1010.4
2017-08-24T02:53:47.274Z,1010.36
2017-08-24T02:54:59.550Z,1010.38
2017-08-24T02:56:12.269Z,1010.34
2017-08-24T02:57:24.554Z,1010.34
2017-08-24T02:58:36.826Z,1010.29
2017-08-24T02:59:48.788Z,1010.3
2017-08-24T03:01:00.811Z,1010.31
2017-08-24T03:02:13.494Z,1010.3
2017-08-24T03:03:26.083Z,1010.31
2017-08-24T03:04:38.066Z,1010.3
2017-08-24T03:05:50.007Z,1010.33
2017-08-24T03:07:02.559Z,1010.3
2017-08-24T03:08:14.834Z,1010.3
2017-08-24T03:09:27.450Z,1010.3
2017-08-24T03:10:39.738Z,1010.29
2017-08-24T03:11:52.301Z,1010.26
2017-08-24T03:13:04.883Z,1010.25
2017-08-24T03:14:17.193Z,1010.25
2017-08-24T03:15:29.464Z,1010.26
2017-08-24T03:16:42.091Z,1010.22
2017-08-24T03:17:54.366Z,1010.3
2017-08-24T03:19:06.410Z,1010.29
2017-08-24T03:20:19.004Z,1010.31
2017-08-24T03:21:31.609Z,1010.25
2017-08-24T03:22:44.165Z,1010.27
2017-08-24T03:23:56.715Z,1010.22
2017-08-24T03:25:09.598Z,1010.21
2017-08-24T03:26:22.211Z,1010.19
2017-08-24T03:27:34.821Z,1010.26
2017-08-24T03:28:46.755Z,1010.24
2017-08-24T03:29:59.047Z,1010.21
2017-08-24T03:31:11.646Z,1010.18
2017-08-24T03:32:23.912Z,1010.17
2017-08-24T03:33:36.217Z,1010.17
2017-08-24T03:34:48.503Z,1010.17
2017-08-24T03:36:01.074Z,1010.14
2017-08-24T03:37:13.043Z,1010.16
2017-08-24T03:38:25.652Z,1010.13
2017-08-24T03:39:38.307Z,1010.08
2017-08-24T03:40:50.912Z,1010.04
2017-08-24T03:42:03.194Z,1010.06
2017-08-24T03:43:15.482Z,1010.04
2017-08-24T03:44:27.844Z,1009.97
2017-08-24T03:45:40.180Z,1010
2017-08-24T03:46:52.438Z,1009.97
2017-08-24T03:48:04.665Z,1010
2017-08-24T03:49:17.006Z,1010.03
2017-08-24T03:50:29.347Z,1010.04
2017-08-24T03:51:41.621Z,1010.05
2017-08-24T03:52:54.235Z,1010.07
2017-08-24T03:54:06.513Z,1010.09
2017-08-24T03:55:19.102Z,1010.04
2017-08-24T03:56:31.135Z,1010.05
2017-08-24T03:57:43.701Z,1010.07
2017-08-24T03:58:56.264Z,1010.07
2017-08-24T04:00:08.566Z,1010.04
2017-08-24T04:01:21.091Z,1009.98
2017-08-24T04:02:33.105Z,1009.94
2017-08-24T04:03:45.075Z,1009.86
2017-08-24T04:04:57.118Z,1009.85
2017-08-24T04:06:09.762Z,1009.8
2017-08-24T04:07:22.054Z,1009.82
2017-08-24T04:08:34.333Z,1009.83
2017-08-24T04:09:46.875Z,1009.84
2017-08-24T04:10:59.421Z,1009.84
2017-08-24T04:12:11.994Z,1009.89
2017-08-24T04:13:24.616Z,1009.92
2017-08-24T04:14:37.244Z,1009.91
2017-08-24T04:15:49.809Z,1009.88
2017-08-24T04:17:02.066Z,1009.91
2017-08-24T04:18:14.641Z,1009.94
2017-08-24T04:19:26.665Z,1009.93
2017-08-24T04:20:39.211Z,1009.97
2017-08-24T04:21:51.513Z,1009.95
2017-08-24T04:23:03.801Z,1009.96
2017-08-24T04:24:16.116Z,1009.96
2017-08-24T04:25:28.619Z,1009.98
2017-08-24T04:26:40.870Z,1009.95
2017-08-24T04:27:53.133Z,1009.93
2017-08-24T04:29:05.388Z,1009.96
2017-08-24T04:30:17.968Z,1009.9
2017-08-24T04:31:30.549Z,1009.89
2017-08-24T04:32:43.149Z,1009.94
2017-08-24T04:33:55.438Z,1009.94
2017-08-24T04:35:07.710Z,1009.94
2017-08-24T04:36:20.311Z,1009.94
2017-08-24T04:37:32.892Z,1009.92
2017-08-24T04:38:44.588Z,1009.98
2017-08-24T04:39:56.867Z,1009.99
2017-08-24T04:41:09.418Z,1010.04
2017-08-24T04:42:22.058Z,1010.05
2017-08-24T04:43:34.302Z,1010.01
2017-08-24T04:44:46.603Z,1009.99
2017-08-24T04:45:59.156Z,1009.99
2017-08-24T04:47:11.466Z,1009.93
2017-08-24T04:48:24.022Z,1009.91
2017-08-24T04:49:36.623Z,1009.87
2017-08-24T04:50:49.252Z,1009.9
2017-08-24T04:52:01.503Z,1009.89
2017-08-24T04:53:13.443Z,1009.92
2017-08-24T04:54:25.702Z,1009.94
2017-08-24T04:55:38.345Z,1009.92
2017-08-24T04:56:50.659Z,1009.92
2017-08-24T04:58:02.986Z,1009.93
2017-08-24T04:59:15.579Z,1009.95
2017-08-24T05:00:28.165Z,1009.95
2017-08-24T05:01:40.412Z,1009.95
2017-08-24T05:02:52.914Z,1009.97
2017-08-24T05:04:05.241Z,1009.94
2017-08-24T05:05:17.849Z,1009.87
2017-08-24T05:06:29.825Z,1009.92
2017-08-24T05:07:42.091Z,1009.95
2017-08-24T05:08:54.387Z,1009.9
2017-08-24T05:10:06.957Z,1009.88
2017-08-24T05:11:19.552Z,1009.88
2017-08-24T05:12:31.847Z,1009.89
2017-08-24T05:13:44.396Z,1009.9
2017-08-24T05:14:57.048Z,1009.91
2017-08-24T05:16:09.615Z,1009.93
2017-08-24T05:17:21.904Z,1009.94
2017-08-24T05:18:33.890Z,1009.91
2017-08-24T05:19:46.190Z,1009.9
2017-08-24T05:20:58.470Z,1009.95
2017-08-24T05:22:11.041Z,1009.97
2017-08-24T05:23:23.609Z,1009.93
2017-08-24T05:24:36.434Z,1009.91
2017-08-24T05:25:49.054Z,1009.93
2017-08-24T05:27:01.320Z,1009.91
2017-08-24T05:28:13.584Z,1009.93
2017-08-24T05:29:25.840Z,1009.89
2017-08-24T05:30:38.451Z,1009.9
2017-08-24T05:31:51.032Z,1009.86
2017-08-24T05:33:03.355Z,1009.84
2017-08-24T05:34:15.962Z,1009.82
2017-08-24T05:35:28.596Z,1009.82
2017-08-24T05:36:41.136Z,1009.85
2017-08-24T05:37:53.404Z,1009.86
2017-08-24T05:39:06.036Z,1009.83
2017-08-24T05:40:18.273Z,1009.86
2017-08-24T05:41:30.874Z,1009.88
2017-08-24T05:42:43.191Z,1009.88
2017-08-24T05:43:55.493Z,1009.87
2017-08-24T05:45:07.783Z,1009.85
2017-08-24T05:46:20.301Z,1009.86
2017-08-24T05:47:32.848Z,1009.83
2017-08-24T05:48:45.428Z,1009.84
2017-08-24T05:49:58.018Z,1009.86
2017-08-24T05:51:10.315Z,1009.88
2017-08-24T05:52:22.915Z,1009.87
2017-08-24T05:53:35.556Z,1009.87
2017-08-24T05:54:47.863Z,1009.89
2017-08-24T05:56:00.422Z,1009.86
2017-08-24T05:57:12.372Z,1009.84
2017-08-24T05:58:24.947Z,1009.88
2017-08-24T05:59:37.590Z,1009.87
2017-08-24T06:00:50.160Z,1009.86
2017-08-24T06:02:02.743Z,1009.84
2017-08-24T06:03:14.695Z,1009.83
2017-08-24T06:04:26.972Z,1009.82
2017-08-24T06:05:39.532Z,1009.85
2017-08-24T06:06:52.178Z,1009.88
2017-08-24T06:08:04.821Z,1009.85
2017-08-24T06:09:17.070Z,1009.9
2017-08-24T06:10:29.090Z,1009.89
2017-08-24T06:11:41.660Z,1009.93
2017-08-24T06:12:53.613Z,1009.87
2017-08-24T06:14:05.902Z,1009.89
2017-08-24T06:15:18.471Z,1009.87
2017-08-24T06:16:30.769Z,1009.86
2017-08-24T06:17:43.338Z,1009.88
2017-08-24T06:18:55.883Z,1009.88
2017-08-24T06:20:08.575Z,1009.89
2017-08-24T06:21:21.175Z,1009.86
2017-08-24T06:22:33.771Z,1009.84
2017-08-24T06:23:46.365Z,1009.82
2017-08-24T06:24:58.643Z,1009.8
2017-08-24T06:26:11.323Z,1009.77
2017-08-24T06:27:23.289Z,1009.82
2017-08-24T06:28:35.599Z,1009.87
2017-08-24T06:29:47.893Z,1009.85
2017-08-24T06:31:00.240Z,1009.87
2017-08-24T06:32:12.790Z,1009.91
2017-08-24T06:33:25.098Z,1009.89
2017-08-24T06:34:37.353Z,1009.88
2017-08-24T06:35:49.945Z,1009.89
2017-08-24T06:37:01.324Z,1009.87
2017-08-24T06:38:13.606Z,1009.89
2017-08-24T06:39:26.245Z,1009.88
2017-08-24T06:40:39.070Z,1009.9
2017-08-24T06:41:51.651Z,1009.88
2017-08-24T06:43:04.327Z,1009.89
2017-08-24T06:44:16.917Z,1009.89
2017-08-24T06:45:29.493Z,1009.85
2017-08-24T06:46:41.859Z,1009.87
2017-08-24T06:47:54.429Z,1009.86
2017-08-24T06:49:07.066Z,1009.87
2017-08-24T06:50:19.324Z,1009.91
2017-08-24T06:51:31.921Z,1009.91
2017-08-24T06:52:43.890Z,1009.9
2017-08-24T06:53:56.233Z,1009.84
2017-08-24T06:55:08.214Z,1009.83
2017-08-24T06:56:20.798Z,1009.82
2017-08-24T06:57:32.730Z,1009.76
2017-08-24T06:58:44.726Z,1009.81
2017-08-24T06:59:56.760Z,1009.73
2017-08-24T07:01:09.049Z,1009.76
2017-08-24T07:02:21.555Z,1009.73
2017-08-24T07:03:34.072Z,1009.75
2017-08-24T07:04:46.622Z,1009.79
2017-08-24T07:05:58.913Z,1009.81
2017-08-24T07:07:11.434Z,1009.84
2017-08-24T07:08:23.654Z,1009.86
2017-08-24T07:09:35.931Z,1009.89
2017-08-24T07:10:48.497Z,1009.89
2017-08-24T07:12:00.790Z,1009.9
2017-08-24T07:13:12.566Z,1009.88
2017-08-24T07:14:25.226Z,1009.85
2017-08-24T07:15:37.757Z,1009.84
2017-08-24T07:16:50.331Z,1009.77
2017-08-24T07:18:02.596Z,1009.76
2017-08-24T07:19:14.927Z,1009.72
2017-08-24T07:20:27.609Z,1009.74
2017-08-24T07:21:39.883Z,1009.72
2017-08-24T07:22:52.453Z,1009.8
2017-08-24T07:24:05.067Z,1009.8
2017-08-24T07:25:17.032Z,1009.83
2017-08-24T07:26:29.699Z,1009.82
2017-08-24T07:27:41.947Z,1009.82
2017-08-24T07:28:54.529Z,1009.87
2017-08-24T07:30:07.127Z,1009.88
2017-08-24T07:31:19.423Z,1009.84
2017-08-24T07:32:31.678Z,1009.86
2017-08-24T07:33:43.956Z,1009.79
2017-08-24T07:34:56.546Z,1009.78
2017-08-24T07:36:08.866Z,1009.79
2017-08-24T07:37:21.453Z,1009.78
2017-08-24T07:38:33.727Z,1009.79
2017-08-24T07:39:46.304Z,1009.79
2017-08-24T07:40:58.598Z,1009.83
2017-08-24T07:42:11.170Z,1009.84
2017-08-24T07:43:23.762Z,1009.78
2017-08-24T07:44:35.799Z,1009.79
2017-08-24T07:45:48.114Z,1009.78
2017-08-24T07:47:00.397Z,1009.8
2017-08-24T07:48:12.963Z,1009.86
2017-08-24T07:49:25.281Z,1009.87
2017-08-24T07:50:37.631Z,1009.88
2017-08-24T07:51:49.938Z,1009.88
2017-08-24T07:53:02.513Z,1009.89
2017-08-24T07:54:15.075Z,1009.84
2017-08-24T07:55:27.724Z,1009.87
2017-08-24T07:56:40.334Z,1009.83
2017-08-24T07:57:52.901Z,1009.81
2017-08-24T07:59:05.554Z,1009.78
2017-08-24T08:00:18.143Z,1009.75
2017-08-24T08:01:30.756Z,1009.82
2017-08-24T08:02:43.078Z,1009.8
2017-08-24T08:03:55.333Z,1009.8
2017-08-24T08:05:07.993Z,1009.75
2017-08-24T08:06:20.262Z,1009.77
2017-08-24T08:07:32.618Z,1009.77
2017-08-24T08:08:44.940Z,1009.78
2017-08-24T08:09:57.583Z,1009.75
2017-08-24T08:11:10.214Z,1009.71
2017-08-24T08:12:22.800Z,1009.71
2017-08-24T08:13:34.832Z,1009.77
2017-08-24T08:14:47.465Z,1009.81
2017-08-24T08:16:00.079Z,1009.88
2017-08-24T08:17:12.040Z,1009.83
2017-08-24T08:18:24.912Z,1009.86
2017-08-24T08:19:36.916Z,1009.83
2017-08-24T08:20:49.500Z,1009.85
2017-08-24T08:22:01.457Z,1009.82
2017-08-24T08:23:13.771Z,1009.83
2017-08-24T08:24:26.353Z,1009.81
2017-08-24T08:25:38.668Z,1009.8
2017-08-24T08:26:50.901Z,1009.84
2017-08-24T08:28:03.229Z,1009.84
2017-08-24T08:29:14.913Z,1009.89
2017-08-24T08:30:27.508Z,1009.83
2017-08-24T08:31:39.794Z,1009.85
2017-08-24T08:32:52.436Z,1009.87
2017-08-24T08:34:04.734Z,1009.87
2017-08-24T08:35:16.146Z,1009.89
2017-08-24T08:36:28.812Z,1009.89
2017-08-24T08:37:41.385Z,1009.94
2017-08-24T08:38:53.952Z,1009.9
2017-08-24T08:40:05.908Z,1009.86
2017-08-24T08:41:18.258Z,1009.89
2017-08-24T08:42:30.918Z,1009.86
2017-08-24T08:43:43.588Z,1009.82
2017-08-24T08:44:56.209Z,1009.81
2017-08-24T08:46:08.200Z,1009.79
2017-08-24T08:47:20.433Z,1009.78
2017-08-24T08:48:32.742Z,1009.74
2017-08-24T08:49:44.067Z,1009.73
2017-08-24T08:50:56.670Z,1009.67
2017-08-24T08:52:08.642Z,1009.75
2017-08-24T08:53:21.240Z,1009.78
2017-08-24T08:54:33.883Z,1009.77
2017-08-24T08:55:46.540Z,1009.76
2017-08-24T08:56:59.148Z,1009.79
2017-08-24T08:58:11.144Z,1009.8
2017-08-24T08:59:23.416Z,1009.79
2017-08-24T09:00:35.700Z,1009.8
2017-08-24T09:01:47.400Z,1009.85
2017-08-24T09:02:59.640Z,1009.84
2017-08-24T09:04:12.259Z,1009.88
2017-08-24T09:05:24.585Z,1009.88
2017-08-24T09:06:36.308Z,1009.84
2017-08-24T09:07:48.566Z,1009.83
2017-08-24T09:09:00.819Z,1009.85
2017-08-24T09:10:12.827Z,1009.89
2017-08-24T09:11:24.796Z,1009.86
2017-08-24T09:12:37.159Z,1009.95
2017-08-24T09:13:49.704Z,1010.01
2017-08-24T09:15:01.965Z,1009.94
2017-08-24T09:16:14.250Z,1009.91
2017-08-24T09:17:26.841Z,1009.88
2017-08-24T09:18:39.452Z,1009.87
2017-08-24T09:19:51.694Z,1009.91
2017-08-24T09:21:03.686Z,1009.95
2017-08-24T09:22:16.035Z,1009.96
2017-08-24T09:23:28.652Z,1009.97
2017-08-24T09:24:40.643Z,1009.98
2017-08-24T09:25:52.910Z,1010.02
2017-08-24T09:27:05.234Z,1010.01
2017-08-24T09:28:17.886Z,1010.02
2017-08-24T09:29:29.871Z,1010.01
2017-08-24T09:30:42.483Z,1010.05
2017-08-24T09:31:54.767Z,1010.02
2017-08-24T09:33:06.710Z,1010.06
2017-08-24T09:34:19.331Z,1010.09
2017-08-24T09:35:31.902Z,1010.05
2017-08-24T09:36:44.181Z,1010
2017-08-24T09:37:56.465Z,1009.99
2017-08-24T09:39:09.024Z,1010.02
2017-08-24T09:40:20.984Z,1010.1
2017-08-24T09:41:33.326Z,1010.13
2017-08-24T09:42:45.602Z,1010.09
2017-08-24T09:43:57.271Z,1010
2017-08-24T09:45:09.563Z,1009.75
2017-08-24T09:46:22.174Z,1009.59
2017-08-24T09:47:34.435Z,1009.56
2017-08-24T09:48:46.717Z,1009.49
2017-08-24T09:49:59.249Z,1009.38
2017-08-24T09:51:11.559Z,1009.43
2017-08-24T09:52:24.116Z,1009.45
2017-08-24T09:53:36.389Z,1009.41
2017-08-24T09:54:48.054Z,1009.32
2017-08-24T09:56:00.682Z,1009.16
2017-08-24T09:57:12.601Z,1009.09
2017-08-24T09:58:24.194Z,1008.92
2017-08-24T09:59:36.714Z,1008.81
2017-08-24T10:00:48.644Z,1008.7
2017-08-24T10:02:01.009Z,1008.53
2017-08-24T10:03:13.284Z,1008.45
2017-08-24T10:04:25.937Z,1008.43
2017-08-24T10:05:38.468Z,1008.46
2017-08-24T10:06:50.736Z,1008.38
2017-08-24T10:08:03.056Z,1008.24
2017-08-24T10:09:15.625Z,1008.08
2017-08-24T10:10:28.228Z,1007.99
2017-08-24T10:11:40.242Z,1008.01
2017-08-24T10:12:52.891Z,1007.97
2017-08-24T10:14:05.507Z,1007.88
2017-08-24T10:15:18.115Z,1007.72
2017-08-24T10:16:30.100Z,1007.56
2017-08-24T10:17:42.374Z,1007.55
2017-08-24T10:18:55.003Z,1007.58
2017-08-24T10:20:07.637Z,1007.71
2017-08-24T10:21:20.226Z,1007.86
2017-08-24T10:22:32.478Z,1008.03
2017-08-24T10:23:44.873Z,1008.09
2017-08-24T10:24:57.505Z,1008.09
2017-08-24T10:26:09.490Z,1008.21
2017-08-24T10:27:22.122Z,1008.39
2017-08-24T10:28:34.435Z,1008.62
2017-08-24T10:29:47.229Z,1008.74
2017-08-24T10:31:00.455Z,1008.85
2017-08-24T10:32:13.593Z,1008.91
2017-08-24T10:33:25.863Z,1008.85
2017-08-24T10:34:37.821Z,1008.83
2017-08-24T10:35:50.092Z,1008.82
2017-08-24T10:37:02.404Z,1008.89
2017-08-24T10:38:14.983Z,1008.91
2017-08-24T10:39:27.828Z,1009.04
2017-08-24T10:40:40.463Z,1009.15
2017-08-24T10:42:07.057Z,1009.17
2017-08-24T10:43:19.328Z,1009.13
2017-08-24T10:44:32.030Z,1009.07
2017-08-24T10:46:13.824Z,1009.06
2017-08-24T10:47:26.174Z,1009.06
2017-08-24T10:48:38.120Z,1009.12
2017-08-24T10:49:50.409Z,1009.13
2017-08-24T10:51:01.743Z,1009.19
2017-08-24T10:52:14.395Z,1009.26
2017-08-24T10:53:27.042Z,1009.18
2017-08-24T10:54:39.637Z,1009.21
2017-08-24T10:55:51.926Z,1009.24
2017-08-24T10:57:04.488Z,1009.27
2017-08-24T10:58:16.731Z,1009.24
2017-08-24T10:59:29.359Z,1009.25
2017-08-24T11:00:41.357Z,1009.26
2017-08-24T11:01:53.645Z,1009.22
2017-08-24T11:03:05.974Z,1009.18
2017-08-24T11:04:18.259Z,1009.13
2017-08-24T11:05:30.535Z,1009.09
2017-08-24T11:06:42.781Z,1009.11
2017-08-24T11:07:55.116Z,1009.08
2017-08-24T11:09:07.060Z,1009.02
2017-08-24T11:10:19.323Z,1009.03
2017-08-24T11:11:31.902Z,1009.06
2017-08-24T11:12:44.172Z,1009.06
2017-08-24T11:13:56.453Z,1009.06
2017-08-24T11:15:08.727Z,1009.05
2017-08-24T11:16:20.762Z,1009.07
2017-08-24T11:17:32.420Z,1009.15
2017-08-24T11:18:44.757Z,1009.21
2017-08-24T11:19:57.300Z,1009.24
2017-08-24T11:21:08.966Z,1009.19
2017-08-24T11:22:21.613Z,1009.23
2017-08-24T11:23:33.609Z,1009.27
2017-08-24T11:24:46.180Z,1009.31
2017-08-24T11:25:58.803Z,1009.33
2017-08-24T11:27:11.434Z,1009.4
2017-08-24T11:28:24.039Z,1009.39
2017-08-24T11:29:36.347Z,1009.37
2017-08-24T11:30:48.357Z,1009.41
2017-08-24T11:32:00.681Z,1009.35
2017-08-24T11:33:12.659Z,1009.36
2017-08-24T11:34:25.311Z,1009.39
2017-08-24T11:35:36.698Z,1009.43
2017-08-24T11:36:48.691Z,1009.38
2017-08-24T11:38:00.410Z,1009.36
2017-08-24T11:39:12.931Z,1009.39
2017-08-24T11:40:25.198Z,1009.39
2017-08-24T11:41:37.435Z,1009.4
2017-08-24T11:42:50.050Z,1009.38
2017-08-24T11:44:02.395Z,1009.38
2017-08-24T11:45:15.152Z,1009.34
2017-08-24T11:46:27.806Z,1009.33
2017-08-24T11:47:40.196Z,1009.33
2017-08-24T11:48:52.434Z,1009.32
2017-08-24T11:50:04.441Z,1009.36
2017-08-24T11:51:17.015Z,1009.38
2017-08-24T11:52:29.629Z,1009.42
2017-08-24T11:53:42.253Z,1009.47
2017-08-24T11:54:54.876Z,1009.49
2017-08-24T11:56:07.433Z,1009.48
2017-08-24T11:57:19.079Z,1009.53
2017-08-24T11:58:31.333Z,1009.55
2017-08-24T11:59:43.771Z,1009.54
2017-08-24T12:00:55.976Z,1009.61
2017-08-24T12:02:07.973Z,1009.62
2017-08-24T12:03:20.645Z,1009.63
2017-08-24T12:04:33.263Z,1009.63
2017-08-24T12:05:45.486Z,1009.62
2017-08-24T12:06:57.769Z,1009.69
2017-08-24T12:08:09.692Z,1009.7
2017-08-24T12:09:22.293Z,1009.68
2017-08-24T12:10:49.404Z,1009.68
2017-08-24T12:12:01.408Z,1009.67
2017-08-24T12:13:13.652Z,1009.68
2017-08-24T12:14:25.642Z,1009.71
2017-08-24T12:15:38.156Z,1009.69
2017-08-24T12:16:50.740Z,1009.65
2017-08-24T12:18:03.014Z,1009.65
2017-08-24T12:19:15.613Z,1009.64
2017-08-24T12:20:28.106Z,1009.59
2017-08-24T12:21:55.398Z,1009.67
2017-08-24T12:23:07.645Z,1009.6
2017-08-24T12:24:19.925Z,1009.63
2017-08-24T12:25:32.534Z,1009.55
2017-08-24T12:26:45.191Z,1009.5
2017-08-24T12:27:57.893Z,1009.54
2017-08-24T12:29:10.189Z,1009.52
2017-08-24T12:30:22.816Z,1009.58
2017-08-24T12:31:34.817Z,1009.58
2017-08-24T12:32:47.157Z,1009.59
2017-08-24T12:33:59.168Z,1009.6
2017-08-24T12:35:11.753Z,1009.57
2017-08-24T12:36:24.402Z,1009.66
2017-08-24T12:37:36.923Z,1009.73
2017-08-24T12:38:49.218Z,1009.68
2017-08-24T12:40:01.462Z,1009.69
2017-08-24T12:41:13.751Z,1009.63
2017-08-24T12:42:26.348Z,1009.59
2017-08-24T12:43:38.645Z,1009.61
2017-08-24T12:44:50.900Z,1009.59
2017-08-24T12:46:03.553Z,1009.64
2017-08-24T12:47:15.861Z,1009.69
2017-08-24T12:48:28.106Z,1009.68
2017-08-24T12:49:40.089Z,1009.7
2017-08-24T12:50:52.723Z,1009.67
2017-08-24T12:52:05.364Z,1009.79
2017-08-24T12:53:17.615Z,1009.77
2017-08-24T12:54:30.261Z,1009.79
2017-08-24T12:55:42.542Z,1009.88
2017-08-24T12:56:54.750Z,1009.71
2017-08-24T12:58:07.370Z,1009.71
2017-08-24T12:59:19.594Z,1009.73
2017-08-24T13:00:32.151Z,1009.81
2017-08-24T13:01:44.436Z,1009.92
2017-08-24T13:02:56.150Z,1009.94
2017-08-24T13:04:08.724Z,1009.9
2017-08-24T13:05:20.742Z,1009.76
2017-08-24T13:06:32.998Z,1009.74
2017-08-24T13:07:45.589Z,1009.69
2017-08-24T13:08:58.388Z,1009.74
2017-08-24T13:10:10.637Z,1009.79
2017-08-24T13:11:23.269Z,1009.8
2017-08-24T13:12:35.903Z,1009.73
2017-08-24T13:13:48.144Z,1009.7
2017-08-24T13:15:00.398Z,1009.66
2017-08-24T13:16:12.658Z,1009.68
2017-08-24T13:17:25.271Z,1009.67
2017-08-24T13:18:37.784Z,1009.62
2017-08-24T13:19:50.395Z,1009.69
2017-08-24T13:21:02.315Z,1009.75
2017-08-24T13:22:14.628Z,1009.77
2017-08-24T13:23:26.917Z,1009.74
2017-08-24T13:24:39.198Z,1009.68
2017-08-24T13:25:51.477Z,1009.73
2017-08-24T13:27:04.140Z,1009.7
2017-08-24T13:28:16.431Z,1009.78
2017-08-24T13:29:28.986Z,1009.76
2017-08-24T13:30:40.935Z,1009.74
2017-08-24T13:31:53.273Z,1009.68
2017-08-24T13:33:05.907Z,1009.62
2017-08-24T13:34:17.890Z,1009.62
2017-08-24T13:35:30.167Z,1009.59
2017-08-24T13:36:42.732Z,1009.59
2017-08-24T13:37:54.992Z,1009.57
2017-08-24T13:39:07.247Z,1009.55
2017-08-24T13:40:19.240Z,1009.59
2017-08-24T13:41:31.871Z,1009.58
2017-08-24T13:42:44.211Z,1009.59
2017-08-24T13:43:56.527Z,1009.62
2017-08-24T13:45:09.099Z,1009.66
2017-08-24T13:46:21.091Z,1009.62
2017-08-24T13:47:33.912Z,1009.62
2017-08-24T13:48:46.157Z,1009.68
2017-08-24T13:49:58.158Z,1009.68
2017-08-24T13:51:10.427Z,1009.74
2017-08-24T13:52:23.081Z,1009.68
2017-08-24T13:53:35.360Z,1009.72
2017-08-24T13:54:47.990Z,1009.73
2017-08-24T13:56:00.294Z,1009.77
2017-08-24T13:57:12.602Z,1009.72
2017-08-24T13:58:24.559Z,1009.78
2017-08-24T13:59:36.860Z,1009.83
2017-08-24T14:00:49.496Z,1009.86
2017-08-24T14:02:02.186Z,1009.87
2017-08-24T14:03:14.468Z,1009.85
2017-08-24T14:04:26.827Z,1009.86
2017-08-24T14:05:39.374Z,1009.92
2017-08-24T14:06:51.719Z,1009.9
2017-08-24T14:08:03.403Z,1009.85
2017-08-24T14:09:16.020Z,1009.87
2017-08-24T14:10:28.666Z,1009.86
2017-08-24T14:11:41.302Z,1009.86
2017-08-24T14:12:53.902Z,1009.83
2017-08-24T14:14:05.835Z,1009.87
2017-08-24T14:15:18.461Z,1009.87
2017-08-24T14:16:30.744Z,1009.81
2017-08-24T14:17:43.035Z,1009.79
2017-08-24T14:18:55.036Z,1009.82
2017-08-24T14:20:07.271Z,1009.77
2017-08-24T14:21:19.877Z,1009.79
2017-08-24T14:22:31.836Z,1009.77
2017-08-24T14:23:44.333Z,1009.77
2017-08-24T14:24:56.269Z,1009.84
2017-08-24T14:26:08.930Z,1009.79
2017-08-24T14:27:21.528Z,1009.77
2017-08-24T14:28:33.801Z,1009.67
2017-08-24T14:29:46.086Z,1009.62
2017-08-24T14:30:58.346Z,1009.66
2017-08-24T14:32:10.994Z,1009.64
2017-08-24T14:33:23.573Z,1009.67
2017-08-24T14:34:36.154Z,1009.71
2017-08-24T14:35:48.796Z,1009.73
2017-08-24T14:37:01.102Z,1009.78
2017-08-24T14:38:13.756Z,1009.74
2017-08-24T14:39:26.012Z,1009.7